Weather observations for the past three days for
Temple, Draughon-Miller Central Texas Regional Airport
| Date | Time (cdt) | Wind (mph) | Vis. (mi.) | Weather | Sky Cond. | Temperature (ºF) | Relative Humidity | Wind Chill (°F) | Heat Index (°F) | Pressure | Precipitation (in) | ||||||
|---|---|---|---|---|---|---|---|---|---|---|---|---|---|---|---|---|---|
| Air | Dwpt | 6 hour | altimeter (in) | sea level (mb) | 1 hr | 3 hr | 6 hr | ||||||||||
| Max. | Min. | ||||||||||||||||
| 08 | 04:51 | N 5 | 0.00 | Overcast | OVC028 | 59 | 57 | 93% | 29.99 | 1014.8 | |||||||
| 08 | 03:51 | N 3 | 0.00 | Overcast | OVC028 | 57.9 | 55.9 | 93% | 29.97 | 1014.2 | |||||||
| 08 | 02:51 | N 5 | 0.00 | Mostly Cloudy | BKN024 | 57 | 55.9 | 96% | 29.96 | 1014.1 | |||||||
| 08 | 01:51 | NW 3 | 0.00 | Fair | CLR | 55.9 | 54 | 93% | 29.99 | 1015.1 | |||||||
| 08 | 00:51 | NW 5 | 0.00 | Fair | CLR | 55.9 | 55 | 66 | 55.9 | 97% | 30 | 1015.3 | |||||
| 07 | 23:51 | NW 3 | 0.00 | Fair | CLR | 57.9 | 55 | 90% | 30.01 | 1015.7 | |||||||
| 07 | 22:51 | NW 3 | 0.00 | Fair | CLR | 57.9 | 55 | 90% | 30.01 | 1015.7 | |||||||
| 07 | 21:51 | NE 5 | 0.00 | Fair | CLR | 59 | 55 | 87% | 29.97 | 1014.5 | |||||||
| 07 | 20:51 | N 5 | 0.00 | Fair | CLR | 61 | 55 | 81% | 29.97 | 1014.2 | |||||||
| 07 | 19:51 | N 5 | 0.00 | Fair | CLR | 63 | 55.9 | 78% | 30 | 1015.3 | |||||||
| 07 | 18:51 | E 5 | 0.00 | Fair | CLR | 66 | 55 | 66 | 63 | 68% | 29.99 | 1014.9 | |||||
| 07 | 17:51 | N 3 | 0.00 | Fair | CLR | 66 | 54 | 65% | 30.01 | 1015.6 | |||||||
| 07 | 16:51 | NE 7 | 0.00 | A Few Clouds | FEW120 | 66 | 52 | 61% | 30.01 | 1015.5 | |||||||
| 07 | 15:51 | E 3 | 0.00 | Fair | CLR | 64.9 | 52 | 63% | 30.04 | 1016.6 | |||||||
| 07 | 14:51 | E 3 | 0.00 | Fair | CLR | 64.9 | 52 | 63% | 30.06 | 1017.3 | |||||||
| 07 | 13:51 | NE 7 | 0.00 | Fair | CLR | 63 | 51.1 | 65% | 30.07 | 1017.7 | |||||||
| 07 | 12:51 | N 10 | 0.00 | Fair | CLR | 63 | 51.1 | 64.9 | 55.9 | 65% | 30.05 | 1017.2 | |||||
| 07 | 11:51 | NE 7 | 0.00 | Fair | CLR | 64 | 51.1 | 63% | 30.11 | 1018.8 | |||||||
| 07 | 10:51 | NE 10 | 0.00 | Fair | CLR | 62.1 | 50 | 65% | 30.1 | 1018.7 | |||||||
| 07 | 09:51 | NE 9 | 0.00 | Fair | CLR | 60.1 | 51.1 | 72% | 30.11 | 1019.1 | |||||||
| 07 | 08:51 | N 15 G 21 | 0.00 | Fair | CLR | 57 | 52 | 83% | 30.09 | 1018.1 | |||||||
| 07 | 07:51 | N 16 | 0.00 | Mostly Cloudy | BKN014 | 55.9 | 52 | 87% | 30.09 | 1018.3 | |||||||
| 07 | 06:51 | N 13 | 0.00 | Overcast | BKN010 BKN014 OVC029 | 57 | 53.1 | 57.9 | 57 | 87% | 30.08 | 1017.8 | |||||
| 07 | 05:51 | N 13 | 0.00 | Overcast | OVC008 | 57 | 55 | 93% | 30.07 | 1017.4 | |||||||
| 07 | 04:51 | N 10 | 0.00 | Overcast | OVC008 | 57 | 55 | 93% | 30.05 | 1016.9 | |||||||
| 07 | 03:51 | NE 10 | 0.00 | Overcast | OVC008 | 57.9 | 55 | 90% | 30.03 | 1016.0 | |||||||
| 07 | 02:51 | NE 7 | 0.00 | Overcast | OVC010 | 57 | 54 | 90% | 30.01 | 1015.5 | |||||||
| 07 | 01:51 | NE 8 | 0.00 | A Few Clouds | FEW012 | 57 | 53.1 | 87% | 30 | 1015.2 | |||||||
| 07 | 00:51 | NE 9 | 0.00 | Partly Cloudy | SCT014 | 57.9 | 54 | 61 | 57.9 | 87% | 30.01 | 1015.5 | |||||
| 06 | 23:51 | NE 13 G 17 | 0.00 | Overcast | OVC030 | 60.1 | 54 | 80% | 30 | 1015.5 | |||||||
| 06 | 22:51 | N 12 | 0.00 | Overcast | OVC030 | 61 | 54 | 78% | 30.01 | 1015.4 | |||||||
| 06 | 21:51 | N 10 | 0.00 | Overcast | OVC028 | 61 | 55 | 81% | 30 | 1015.2 | |||||||
| 06 | 20:51 | N 8 | 0.00 | Overcast | OVC026 | 61 | 55 | 81% | 29.96 | 1014.0 | |||||||
| 06 | 19:51 | N 8 | 0.00 | Overcast | SCT016 OVC026 | 61 | 55 | 81% | 29.93 | 1013.0 | |||||||
| 06 | 18:51 | N 7 | 0.00 | Overcast | BKN024 OVC039 | 61 | 54 | 61 | 59 | 78% | 29.93 | 1012.7 | |||||
| 06 | 17:51 | N 13 | 0.00 | Overcast | BKN022 OVC034 | 60.1 | 54 | 80% | 29.91 | 1011.9 | |||||||
| 06 | 16:51 | N 13 | 0.00 | Overcast | OVC015 | 60.1 | 54 | 80% | 29.92 | 1012.3 | |||||||
| 06 | 15:51 | N 14 | 0.00 | Overcast | OVC015 | 60.1 | 54 | 80% | 29.92 | 1012.4 | |||||||
| 06 | 14:51 | N 13 | 0.00 | Overcast | OVC013 | 60.1 | 54 | 80% | 29.93 | 1012.5 | |||||||
| 06 | 13:51 | N 15 | 0.00 | Overcast | OVC015 | 61 | 54 | 78% | 29.92 | 1012.4 | |||||||
| 06 | 12:51 | N 13 | 0.00 | Overcast | OVC015 | 63 | 55.9 | 64.9 | 55 | 78% | 29.92 | 1012.2 | |||||
| 06 | 11:51 | Vrbl 3 G 26 | 0.00 | Fair | CLR | 59 | 57 | 93% | 29.89 | 1011.4 | |||||||
| 06 | 10:51 | N 15 G 23 | 0.00 | Overcast | OVC007 | 55 | 54 | 96% | 29.97 | 1014.1 | |||||||
| 06 | 09:51 | N 15 G 25 | 0.00 | Overcast | OVC009 | 57 | 55.9 | 96% | 29.92 | 1012.2 | |||||||
| 06 | 08:51 | N 16 G 21 | 0.00 | Overcast | OVC007 | 60.1 | 59 | 96% | 29.88 | 1010.9 | |||||||
| 06 | 07:51 | N 14 | 0.00 | Overcast | OVC005 | 63 | 62.1 | 97% | 29.85 | 1010.0 | |||||||
| 06 | 06:51 | N 13 | 0.00 | Overcast | OVC005 | 64.9 | 64 | 75 | 64.9 | 97% | 29.83 | 1009.1 | |||||
| 06 | 05:51 | S 6 | 0.00 | Overcast | BKN015 OVC020 | 73 | 73 | 100% | 29.81 | 1008.3 | |||||||
| 06 | 04:51 | S 5 | 0.00 | Overcast | BKN006 OVC010 | 73.9 | 73 | 97% | 29.79 | 1007.6 | |||||||
| 06 | 03:51 | S 7 | 0.00 | Overcast | OVC010 | 73.9 | 72 | 94% | 29.78 | 1007.5 | |||||||
| 06 | 02:51 | S 13 | 0.00 | Overcast | OVC010 | 75 | 72 | 90% | 74 | 29.78 | 1007.4 | ||||||
| 06 | 01:51 | S 9 | 0.00 | Overcast | OVC010 | 75 | 72 | 90% | 74 | 29.8 | 1007.7 | ||||||
| 06 | 00:51 | S 13 | 0.00 | Mostly Cloudy | BKN012 | 73.9 | 71.1 | 82 | 73.9 | 91% | 29.78 | 1007.3 | |||||
| 05 | 23:51 | S 16 | 0.00 | Fair | CLR | 73.9 | 72 | 94% | 29.76 | 1006.7 | |||||||
| 05 | 22:51 | S 15 | 0.00 | Fair | CLR | 75.9 | 72 | 88% | 76 | 29.76 | 1006.6 | ||||||
| 05 | 21:51 | S 9 | 0.00 | Fair | CLR | 75.9 | 71.1 | 85% | 76 | 29.74 | 1005.9 | ||||||
| 05 | 20:51 | S 10 | 0.00 | Fair | CLR | 77 | 71.1 | 82% | 79 | 29.71 | 1005.1 | ||||||
| 05 | 19:51 | S 13 | 0.00 | Fair | CLR | 79 | 71.1 | 77% | 82 | 29.7 | 1004.5 | ||||||
| 05 | 18:51 | S 13 | 0.00 | Fair | CLR | 81 | 72 | 84.9 | 81 | 74% | 85 | 29.7 | 1004.7 | ||||
| 05 | 17:51 | S 16 | 0.00 | Partly Cloudy | SCT031 | 82.9 | 72 | 70% | 88 | 29.7 | 1004.4 | ||||||
| 05 | 16:51 | S 18 | 0.00 | Fair | CLR | 84 | 72 | 67% | 90 | 29.69 | 1004.3 | ||||||
| 05 | 15:51 | S 20 G 24 | 0.00 | A Few Clouds | FEW028 | 84.9 | 72 | 65% | 91 | 29.71 | 1004.9 | ||||||
| 05 | 14:51 | S 17 G 26 | 0.00 | Fair | CLR | 84 | 71.1 | 65% | 89 | 29.72 | 1005.3 | ||||||
| 05 | 13:51 | S 17 G 23 | 0.00 | Mostly Cloudy | BKN023 | 82 | 69.1 | 65% | 85 | 29.75 | 1006.2 | ||||||
| 05 | 12:51 | S 16 G 23 | 0.00 | Overcast | OVC021 | 82 | 70 | 82 | 70 | 67% | 86 | 29.77 | 1006.8 | ||||
| 05 | 11:51 | S 18 G 24 | 0.00 | Overcast | OVC019 | 79 | 69.1 | 72% | 82 | 29.77 | 1006.9 | ||||||
| 05 | 10:51 | S 16 G 22 | 0.00 | Overcast | OVC017 | 75.9 | 68 | 77% | 77 | 29.78 | 1007.3 | ||||||
| 05 | 09:51 | S 13 | 0.00 | Overcast | OVC013 | 73 | 68 | 84% | 29.78 | 1007.4 | |||||||
| 05 | 08:51 | S 15 | 0.00 | Overcast | OVC013 | 72 | 66.9 | 84% | 29.76 | 1006.8 | |||||||
| 05 | 07:51 | S 14 | 0.00 | Overcast | OVC011 | 70 | 66.9 | 90% | 29.75 | 1006.4 | |||||||
| 05 | 06:51 | S 14 | 0.00 | Overcast | OVC019 | 70 | 66 | 71.1 | 70 | 87% | 29.73 | 1005.6 | |||||
| 05 | 05:51 | S 15 | 0.00 | Overcast | OVC015 | 70 | 66 | 87% | 29.73 | 1005.8 | |||||||
| Date | Time (cdt) | Wind (mph) | Vis. (mi.) | Weather | Sky Cond. | Air | Dwpt | Max. | Min. | Relative Humidity | Wind Chill (°F) | Heat Index (°F) | altimeter (in) | sea level (mb) | 1 hr | 3 hr | 6 hr |
| 6 hour | |||||||||||||||||
| Temperature (ºF) | Pressure | Precipitation (in) | |||||||||||||||